createdAt,value
2023-04-29T00:02:31.202Z,99.99
2023-04-29T00:05:29.276Z,99.99
2023-04-29T00:08:39.646Z,99.99
2023-04-29T00:11:48.242Z,99.99
2023-04-29T00:14:56.066Z,99.99
2023-04-29T00:18:06.983Z,99.99
2023-04-29T00:21:15.484Z,99.99
2023-04-29T00:24:23.856Z,99.99
2023-04-29T00:27:33.182Z,99.99
2023-04-29T00:30:40.893Z,99.99
2023-04-29T00:33:48.645Z,99.99
2023-04-29T00:36:57.226Z,99.99
2023-04-29T00:40:06.427Z,99.99
2023-04-29T00:43:14.245Z,99.99
2023-04-29T00:46:22.083Z,99.99
2023-04-29T00:49:31.258Z,99.99
2023-04-29T00:52:39.192Z,99.99
2023-04-29T00:55:46.999Z,99.99
2023-04-29T00:58:56.084Z,99.99
2023-04-29T01:02:03.995Z,99.99
2023-04-29T01:05:11.786Z,99.99
2023-04-29T01:08:20.962Z,99.99
2023-04-29T01:11:29.023Z,99.99
2023-04-29T01:14:36.941Z,99.99
2023-04-29T01:17:44.823Z,99.99
2023-04-29T01:20:53.997Z,99.99
2023-04-29T01:24:01.894Z,99.99
2023-04-29T01:27:10.049Z,99.99
2023-04-29T01:30:19.275Z,99.99
2023-04-29T01:33:26.964Z,99.99
2023-04-29T01:36:34.655Z,99.99
2023-04-29T01:39:43.719Z,99.99
2023-04-29T01:42:51.674Z,99.99
2023-04-29T01:45:59.413Z,99.99
2023-04-29T01:49:08.585Z,99.99
2023-04-29T01:52:16.310Z,99.99
2023-04-29T01:55:24.085Z,99.99
2023-04-29T01:58:33.494Z,99.99
2023-04-29T02:01:41.218Z,99.99
2023-04-29T02:04:48.970Z,99.99
2023-04-29T02:07:56.690Z,99.99
2023-04-29T02:11:05.765Z,99.99
2023-04-29T02:14:13.465Z,99.99
2023-04-29T02:17:21.476Z,99.99
2023-04-29T02:20:30.755Z,99.99
2023-04-29T02:23:38.610Z,99.99
2023-04-29T02:26:46.377Z,99.99
2023-04-29T02:29:55.675Z,99.99
2023-04-29T02:33:03.877Z,99.99
2023-04-29T02:36:12.483Z,99.99
2023-04-29T02:39:21.502Z,99.99
2023-04-29T02:42:29.187Z,99.99
2023-04-29T02:45:36.942Z,99.99
2023-04-29T02:48:44.768Z,99.99
2023-04-29T02:51:54.016Z,99.99
2023-04-29T02:55:01.827Z,99.99
2023-04-29T02:58:09.515Z,99.99
2023-04-29T03:01:18.709Z,99.99
2023-04-29T03:04:26.615Z,99.99
2023-04-29T03:07:34.563Z,99.99
2023-04-29T03:10:43.731Z,99.99
2023-04-29T03:13:51.615Z,99.99
2023-04-29T03:16:59.444Z,99.99
2023-04-29T03:20:09.467Z,99.99
2023-04-29T03:23:17.322Z,99.99
2023-04-29T03:26:26.052Z,99.99
2023-04-29T03:29:33.849Z,99.99
2023-04-29T03:32:43.168Z,99.99
2023-04-29T03:35:50.901Z,99.99
2023-04-29T03:38:58.820Z,99.99
2023-04-29T03:42:08.012Z,99.99
2023-04-29T03:45:16.587Z,99.99
2023-04-29T03:48:24.225Z,99.99
2023-04-29T03:51:33.445Z,99.99
2023-04-29T03:54:41.166Z,99.99
2023-04-29T03:57:48.818Z,99.99
2023-04-29T04:00:58.127Z,99.99
2023-04-29T04:04:05.956Z,99.99
2023-04-29T04:07:13.667Z,99.99
2023-04-29T04:10:22.841Z,99.99
2023-04-29T04:13:30.621Z,99.99
2023-04-29T04:16:38.447Z,99.99
2023-04-29T04:19:46.401Z,99.99
2023-04-29T04:22:55.599Z,99.99
2023-04-29T04:26:03.563Z,99.99
2023-04-29T04:29:11.266Z,99.99
2023-04-29T04:32:20.556Z,99.99
2023-04-29T04:35:28.317Z,99.99
2023-04-29T04:38:36.060Z,99.99
2023-04-29T04:41:45.265Z,99.99
2023-04-29T04:44:53.239Z,99.99
2023-04-29T04:48:01.155Z,99.99
2023-04-29T04:51:10.300Z,99.99
2023-04-29T04:54:18.302Z,99.99
2023-04-29T04:57:26.513Z,99.99
2023-04-29T05:00:34.247Z,99.99
2023-04-29T05:03:43.839Z,99.99
2023-04-29T05:06:51.776Z,99.99
2023-04-29T05:09:59.485Z,99.99
2023-04-29T05:13:08.698Z,99.99
2023-04-29T05:16:16.910Z,99.99
2023-04-29T05:19:24.688Z,99.99
2023-04-29T05:22:33.886Z,99.99
2023-04-29T05:25:41.876Z,99.99
2023-04-29T05:28:50.869Z,99.99
2023-04-29T05:32:00.384Z,99.99
2023-04-29T05:35:08.142Z,99.99
2023-04-29T05:38:16.179Z,99.99
2023-04-29T05:41:25.558Z,99.99
2023-04-29T05:44:33.735Z,99.99
2023-04-29T05:47:41.507Z,99.99
2023-04-29T05:50:49.186Z,99.99
2023-04-29T05:53:58.522Z,99.99
2023-04-29T05:57:06.107Z,99.99
2023-04-29T06:00:15.459Z,99.99
2023-04-29T06:03:14.912Z,99.99
2023-04-29T06:06:22.710Z,99.99
2023-04-29T06:09:30.761Z,99.99
2023-04-29T06:12:40.042Z,99.99
2023-04-29T06:15:48.091Z,99.99
2023-04-29T06:18:57.543Z,99.99
2023-04-29T06:22:07.521Z,99.99
2023-04-29T06:25:15.497Z,99.99
2023-04-29T06:28:23.445Z,99.99
2023-04-29T06:31:31.166Z,99.99
2023-04-29T06:34:40.444Z,99.99
2023-04-29T06:37:48.191Z,99.99
2023-04-29T06:40:56.083Z,99.99
2023-04-29T06:44:05.472Z,99.99
2023-04-29T06:47:13.441Z,99.99
2023-04-29T06:50:21.505Z,99.99
2023-04-29T06:53:30.667Z,99.99
2023-04-29T06:56:38.723Z,99.99
2023-04-29T06:59:46.880Z,99.99
2023-04-29T07:02:56.105Z,99.99
2023-04-29T07:06:03.788Z,99.99
2023-04-29T07:09:11.545Z,99.99
2023-04-29T07:12:20.428Z,99.99
2023-04-29T07:15:29.532Z,99.99
2023-04-29T07:18:37.989Z,99.99
2023-04-29T07:21:45.767Z,99.99
2023-04-29T07:24:55.170Z,99.99
2023-04-29T07:28:02.912Z,99.76
2023-04-29T07:31:11.053Z,99.99
2023-04-29T07:34:20.741Z,99.99
2023-04-29T07:37:28.518Z,99.96
2023-04-29T07:40:36.333Z,99.91
2023-04-29T07:43:45.464Z,99.99
2023-04-29T07:46:53.354Z,99.26
2023-04-29T07:50:00.994Z,99.15
2023-04-29T07:53:10.188Z,99.62
2023-04-29T07:56:17.891Z,98.85
2023-04-29T07:59:25.563Z,97.72
2023-04-29T08:02:33.931Z,97.31
2023-04-29T08:05:43.660Z,97.31
2023-04-29T08:08:51.324Z,98.03
2023-04-29T08:11:59.074Z,97.88
2023-04-29T08:15:09.744Z,97.42
2023-04-29T08:18:17.899Z,97.28
2023-04-29T08:21:25.675Z,96.51
2023-04-29T08:24:34.707Z,93.45
2023-04-29T08:27:42.551Z,93.76
2023-04-29T08:30:50.367Z,93.00
2023-04-29T08:33:59.519Z,91.94
2023-04-29T08:37:07.232Z,90.57
2023-04-29T08:40:15.111Z,92.00
2023-04-29T08:43:22.848Z,90.47
2023-04-29T08:46:32.075Z,90.71
2023-04-29T08:49:39.743Z,89.69
2023-04-29T08:52:47.441Z,90.77
2023-04-29T08:55:56.740Z,90.12
2023-04-29T08:59:04.509Z,89.57
2023-04-29T09:02:13.311Z,91.83
2023-04-29T09:05:22.895Z,88.53
2023-04-29T09:08:30.516Z,86.15
2023-04-29T09:11:39.113Z,86.96
2023-04-29T09:14:49.154Z,86.76
2023-04-29T09:17:56.883Z,86.45
2023-04-29T09:21:05.411Z,82.99
2023-04-29T09:24:14.106Z,83.97
2023-04-29T09:27:23.284Z,84.01
2023-04-29T09:30:31.836Z,83.46
2023-04-29T09:33:39.880Z,82.71
2023-04-29T09:36:49.379Z,79.25
2023-04-29T09:39:57.860Z,81.59
2023-04-29T09:43:05.846Z,79.19
2023-04-29T09:46:15.360Z,79.70
2023-04-29T09:49:23.937Z,77.77
2023-04-29T09:52:31.971Z,77.43
2023-04-29T09:55:41.582Z,76.78
2023-04-29T09:58:49.705Z,75.70
2023-04-29T10:01:58.473Z,79.38
2023-04-29T10:05:08.154Z,76.74
2023-04-29T10:08:16.106Z,75.69
2023-04-29T10:11:24.672Z,75.62
2023-04-29T10:14:32.325Z,74.44
2023-04-29T10:17:42.161Z,75.79
2023-04-29T10:20:50.677Z,77.38
2023-04-29T10:23:58.479Z,71.57
2023-04-29T10:27:08.334Z,75.79
2023-04-29T10:30:16.340Z,71.77
2023-04-29T10:33:24.975Z,71.20
2023-04-29T10:36:34.400Z,71.94
2023-04-29T10:39:42.729Z,70.62
2023-04-29T10:42:50.504Z,73.16
2023-04-29T10:46:00.623Z,72.89
2023-04-29T10:49:08.374Z,72.01
2023-04-29T10:52:17.024Z,72.65
2023-04-29T10:55:25.123Z,73.26
2023-04-29T10:58:34.230Z,72.99
2023-04-29T11:01:42.880Z,74.11
2023-04-29T11:04:50.925Z,73.39
2023-04-29T11:08:00.464Z,75.60
2023-04-29T11:11:08.963Z,74.95
2023-04-29T11:14:17.146Z,74.71
2023-04-29T11:17:28.347Z,73.66
2023-04-29T11:20:36.854Z,71.80
2023-04-29T11:23:45.026Z,71.97
2023-04-29T11:26:54.497Z,71.37
2023-04-29T11:30:02.778Z,70.76
2023-04-29T11:33:10.651Z,70.05
2023-04-29T11:36:20.141Z,67.82
2023-04-29T11:39:28.280Z,70.12
2023-04-29T11:42:36.029Z,70.18
2023-04-29T11:45:44.237Z,67.25
2023-04-29T11:48:53.842Z,68.56
2023-04-29T11:52:02.003Z,68.12
2023-04-29T11:55:10.425Z,68.96
2023-04-29T11:58:20.010Z,69.78
2023-04-29T12:01:28.263Z,67.82
2023-04-29T12:04:37.100Z,69.54
2023-04-29T12:07:46.672Z,71.94
2023-04-29T12:10:54.874Z,70.05
2023-04-29T12:14:03.344Z,71.37
2023-04-29T12:17:12.841Z,70.48
2023-04-29T12:20:21.779Z,71.20
2023-04-29T12:23:29.582Z,71.03
2023-04-29T12:26:38.145Z,71.47
2023-04-29T12:29:48.036Z,72.04
2023-04-29T12:32:55.880Z,71.03
2023-04-29T12:36:04.487Z,67.34
2023-04-29T12:39:14.397Z,67.03
2023-04-29T12:42:22.153Z,67.34
2023-04-29T12:45:30.759Z,67.47
2023-04-29T12:48:41.514Z,68.05
2023-04-29T12:51:49.623Z,69.78
2023-04-29T12:54:58.210Z,70.45
2023-04-29T12:58:07.765Z,65.45
2023-04-29T13:01:18.423Z,65.96
2023-04-29T13:04:16.205Z,68.02
2023-04-29T13:07:26.019Z,63.27
2023-04-29T13:10:34.492Z,66.27
2023-04-29T13:13:43.148Z,65.09
2023-04-29T13:16:51.500Z,65.80
2023-04-29T13:20:00.995Z,65.90
2023-04-29T13:23:09.134Z,64.89
2023-04-29T13:26:17.570Z,64.18
2023-04-29T13:29:27.307Z,66.44
2023-04-29T13:32:43.980Z,64.39
2023-04-29T13:35:41.371Z,63.71
2023-04-29T13:38:55.074Z,64.18
2023-04-29T13:41:58.344Z,65.09
2023-04-29T13:44:56.936Z,65.59
2023-04-29T13:48:20.103Z,64.79
2023-04-29T13:51:34.515Z,62.02
2023-04-29T13:58:02.790Z,64.28
2023-04-29T14:03:25.030Z,65.16
2023-04-29T14:06:33.272Z,64.25
2023-04-29T14:09:43.399Z,63.78
2023-04-29T14:12:51.902Z,65.62
2023-04-29T14:16:00.235Z,63.90
2023-04-29T14:19:10.041Z,63.40
2023-04-29T14:22:18.250Z,63.81
2023-04-29T14:25:28.488Z,63.60
2023-04-29T14:28:27.790Z,63.53
2023-04-29T14:31:36.837Z,64.24
2023-04-29T14:34:45.271Z,64.67
2023-04-29T14:37:53.340Z,65.69
2023-04-29T14:41:03.845Z,64.98
2023-04-29T14:44:12.279Z,66.43
2023-04-29T14:47:20.768Z,67.14
2023-04-29T14:50:30.600Z,67.03
2023-04-29T14:53:38.977Z,66.56
2023-04-29T14:56:47.783Z,66.97
2023-04-29T14:59:58.014Z,65.85
2023-04-29T15:03:06.475Z,66.63
2023-04-29T15:06:15.539Z,67.55
2023-04-29T15:09:25.974Z,66.33
2023-04-29T15:12:34.322Z,67.75
2023-04-29T15:15:42.985Z,66.53
2023-04-29T15:18:52.239Z,66.63
2023-04-29T15:22:02.579Z,65.75
2023-04-29T15:25:10.913Z,66.46
2023-04-29T15:28:19.946Z,66.97
2023-04-29T15:31:30.820Z,66.77
2023-04-29T15:34:39.653Z,67.47
2023-04-29T15:37:48.014Z,66.46
2023-04-29T15:40:57.901Z,67.03
2023-04-29T15:44:06.010Z,66.94
2023-04-29T15:47:15.489Z,67.24
2023-04-29T15:50:25.590Z,65.48
2023-04-29T15:53:34.683Z,64.88
2023-04-29T15:56:43.064Z,65.08
2023-04-29T15:59:53.469Z,65.99
2023-04-29T16:03:02.577Z,64.58
2023-04-29T16:06:11.187Z,63.76
2023-04-29T16:09:19.534Z,64.58
2023-04-29T16:12:29.440Z,64.95
2023-04-29T16:15:38.129Z,65.32
2023-04-29T16:18:46.164Z,65.02
2023-04-29T16:21:56.414Z,64.51
2023-04-29T16:25:05.097Z,64.72
2023-04-29T16:28:05.911Z,65.62
2023-04-29T16:28:49.151Z,65.42
2023-04-29T16:31:58.833Z,65.53
2023-04-29T16:35:08.488Z,64.04
2023-04-29T16:38:16.960Z,64.07
2023-04-29T16:41:26.790Z,65.31
2023-04-29T16:44:36.003Z,66.46
2023-04-29T16:47:44.402Z,65.75
2023-04-29T16:50:54.727Z,66.46
2023-04-29T16:54:03.062Z,66.36
2023-04-29T16:57:12.119Z,66.26
2023-04-29T17:00:20.700Z,67.61
2023-04-29T17:03:30.653Z,65.78
2023-04-29T17:06:40.106Z,66.08
2023-04-29T17:09:48.525Z,66.29
2023-04-29T17:12:59.170Z,65.37
2023-04-29T17:16:07.786Z,65.48
2023-04-29T17:19:16.646Z,65.58
2023-04-29T17:22:26.849Z,65.68
2023-04-29T17:25:35.153Z,65.71
2023-04-29T17:28:43.663Z,67.06
2023-04-29T17:31:53.880Z,67.47
2023-04-29T17:35:02.908Z,67.27
2023-04-29T17:38:11.725Z,67.50
2023-04-29T17:41:21.416Z,67.50
2023-04-29T17:44:30.701Z,68.75
2023-04-29T17:47:38.989Z,68.85
2023-04-29T17:50:48.267Z,68.85
2023-04-29T17:53:58.548Z,69.60
2023-04-29T17:57:07.319Z,69.60
2023-04-29T18:00:16.067Z,69.93
2023-04-29T18:03:26.601Z,70.86
2023-04-29T18:06:35.743Z,71.09
2023-04-29T18:09:44.622Z,71.50
2023-04-29T18:12:54.839Z,72.45
2023-04-29T18:16:03.542Z,71.73
2023-04-29T18:19:12.849Z,73.60
2023-04-29T18:22:23.190Z,74.11
2023-04-29T18:25:31.701Z,73.43
2023-04-29T18:28:40.112Z,75.37
2023-04-29T18:31:48.845Z,76.63
2023-04-29T18:34:58.358Z,77.18
2023-04-29T18:38:07.150Z,77.38
2023-04-29T18:38:50.532Z,77.62
2023-04-29T18:41:59.590Z,78.54
2023-04-29T18:45:00.475Z,79.39
2023-04-29T18:48:09.170Z,79.64
2023-04-29T18:51:17.776Z,78.82
2023-04-29T18:54:27.478Z,76.78
2023-04-29T18:57:35.967Z,77.15
2023-04-29T19:00:44.589Z,78.52
2023-04-29T19:03:55.336Z,78.61
2023-04-29T19:07:04.009Z,78.96
2023-04-29T19:10:12.441Z,80.74
2023-04-29T19:13:22.327Z,81.90
2023-04-29T19:16:31.291Z,80.81
2023-04-29T19:19:39.828Z,81.32
2023-04-29T19:22:49.156Z,81.52
2023-04-29T19:25:58.841Z,80.40
2023-04-29T19:29:07.264Z,79.17
2023-04-29T19:32:16.576Z,76.68
2023-04-29T19:35:26.305Z,77.29
2023-04-29T19:38:34.640Z,76.57
2023-04-29T19:41:43.472Z,78.72
2023-04-29T19:44:53.361Z,77.73
2023-04-29T19:48:02.351Z,77.09
2023-04-29T19:51:10.536Z,77.73
2023-04-29T19:54:11.100Z,78.86
2023-04-29T19:57:20.430Z,79.93
2023-04-29T20:00:29.483Z,78.19
2023-04-29T20:03:37.794Z,80.17
2023-04-29T20:06:48.240Z,79.66
2023-04-29T20:09:57.130Z,80.10
2023-04-29T20:13:05.734Z,80.07
2023-04-29T20:16:15.989Z,79.75
2023-04-29T20:19:24.285Z,79.35
2023-04-29T20:22:33.023Z,78.80
2023-04-29T20:25:43.831Z,79.55
2023-04-29T20:28:52.696Z,79.86
2023-04-29T20:32:01.654Z,80.58
2023-04-29T20:35:03.478Z,81.09
2023-04-29T20:38:13.158Z,80.88
2023-04-29T20:41:21.306Z,81.09
2023-04-29T20:44:31.390Z,81.34
2023-04-29T20:47:40.521Z,81.95
2023-04-29T20:50:49.461Z,82.15
2023-04-29T20:53:58.464Z,82.46
2023-04-29T20:57:08.655Z,82.56
2023-04-29T21:00:19.411Z,82.87
2023-04-29T21:03:27.975Z,83.12
2023-04-29T21:06:38.074Z,83.01
2023-04-29T21:09:46.969Z,82.81
2023-04-29T21:12:55.330Z,82.81
2023-04-29T21:16:05.134Z,82.91
2023-04-29T21:19:13.956Z,83.22
2023-04-29T21:22:22.793Z,83.67
2023-04-29T21:25:31.946Z,83.98
2023-04-29T21:28:40.383Z,84.18
2023-04-29T21:31:48.619Z,84.59
2023-04-29T21:34:57.219Z,84.94
2023-04-29T21:38:07.792Z,85.66
2023-04-29T21:41:16.175Z,85.90
2023-04-29T21:44:24.618Z,86.21
2023-04-29T21:47:34.552Z,86.42
2023-04-29T21:50:43.436Z,86.93
2023-04-29T21:53:52.418Z,87.38
2023-04-29T21:57:02.448Z,87.59
2023-04-29T22:00:10.648Z,88.31
2023-04-29T22:03:20.168Z,88.66
2023-04-29T22:06:29.949Z,89.07
2023-04-29T22:09:38.494Z,89.48
2023-04-29T22:12:47.038Z,89.28
2023-04-29T22:15:57.657Z,89.52
2023-04-29T22:19:05.955Z,89.73
2023-04-29T22:22:14.824Z,90.18
2023-04-29T22:25:23.618Z,90.80
2023-04-29T22:28:33.553Z,91.46
2023-04-29T22:31:42.617Z,92.08
2023-04-29T22:34:50.479Z,92.49
2023-04-29T22:38:00.545Z,92.38
2023-04-29T22:41:09.000Z,92.59
2023-04-29T22:44:17.964Z,92.59
2023-04-29T22:47:27.713Z,92.69
2023-04-29T22:50:36.538Z,92.63
2023-04-29T22:53:44.938Z,92.94
2023-04-29T22:56:55.341Z,93.15
2023-04-29T23:00:04.050Z,93.05
2023-04-29T23:03:12.435Z,92.94
2023-04-29T23:06:21.553Z,93.05
2023-04-29T23:09:31.633Z,93.05
2023-04-29T23:12:40.565Z,93.05
2023-04-29T23:15:49.480Z,93.09
2023-04-29T23:19:00.203Z,93.19
2023-04-29T23:22:08.630Z,93.34
2023-04-29T23:25:17.802Z,93.96
2023-04-29T23:28:27.771Z,93.96
2023-04-29T23:31:36.681Z,94.06
2023-04-29T23:34:46.149Z,93.85
2023-04-29T23:37:55.837Z,93.13
2023-04-29T23:41:04.888Z,92.41
2023-04-29T23:44:13.730Z,91.89
2023-04-29T23:47:24.344Z,91.69
2023-04-29T23:50:32.607Z,91.73
2023-04-29T23:53:42.337Z,91.83
2023-04-29T23:56:50.519Z,91.83
